sensor_id;sensor_type;location;lat;lon;timestamp;P1;durP1;ratioP1;P2;durP2;ratioP2
26375;SDS011;30544;42.196;24.336;2022-12-13T00:00:20;5.25;;;4.00;;
26375;SDS011;30544;42.196;24.336;2022-12-13T00:02:47;5.63;;;3.80;;
26375;SDS011;30544;42.196;24.336;2022-12-13T00:05:15;6.57;;;4.47;;
26375;SDS011;30544;42.196;24.336;2022-12-13T00:07:42;5.43;;;4.32;;
26375;SDS011;30544;42.196;24.336;2022-12-13T00:10:08;6.20;;;4.55;;
26375;SDS011;30544;42.196;24.336;2022-12-13T00:12:35;5.90;;;4.57;;
26375;SDS011;30544;42.196;24.336;2022-12-13T00:15:04;5.82;;;4.75;;
26375;SDS011;30544;42.196;24.336;2022-12-13T00:17:31;5.78;;;4.45;;
26375;SDS011;30544;42.196;24.336;2022-12-13T00:19:58;7.45;;;5.28;;
26375;SDS011;30544;42.196;24.336;2022-12-13T00:22:26;7.57;;;5.63;;
26375;SDS011;30544;42.196;24.336;2022-12-13T00:24:53;6.78;;;5.00;;
26375;SDS011;30544;42.196;24.336;2022-12-13T00:27:21;6.40;;;5.07;;
26375;SDS011;30544;42.196;24.336;2022-12-13T00:29:48;6.95;;;5.10;;
26375;SDS011;30544;42.196;24.336;2022-12-13T00:32:15;5.88;;;4.80;;
26375;SDS011;30544;42.196;24.336;2022-12-13T00:34:41;6.57;;;4.80;;
26375;SDS011;30544;42.196;24.336;2022-12-13T00:37:08;6.20;;;5.07;;
26375;SDS011;30544;42.196;24.336;2022-12-13T00:39:36;8.60;;;5.00;;
26375;SDS011;30544;42.196;24.336;2022-12-13T00:42:03;7.35;;;5.38;;
26375;SDS011;30544;42.196;24.336;2022-12-13T00:44:31;7.07;;;5.35;;
26375;SDS011;30544;42.196;24.336;2022-12-13T00:46:57;6.55;;;5.45;;
26375;SDS011;30544;42.196;24.336;2022-12-13T00:49:24;7.38;;;5.88;;
26375;SDS011;30544;42.196;24.336;2022-12-13T00:51:51;8.32;;;5.93;;
26375;SDS011;30544;42.196;24.336;2022-12-13T00:54:18;7.28;;;5.35;;
26375;SDS011;30544;42.196;24.336;2022-12-13T00:56:46;6.68;;;4.95;;
26375;SDS011;30544;42.196;24.336;2022-12-13T00:59:15;8.15;;;5.80;;
26375;SDS011;30544;42.196;24.336;2022-12-13T01:01:42;7.88;;;5.45;;
26375;SDS011;30544;42.196;24.336;2022-12-13T01:04:09;7.80;;;5.85;;
26375;SDS011;30544;42.196;24.336;2022-12-13T01:06:37;6.40;;;5.05;;
26375;SDS011;30544;42.196;24.336;2022-12-13T01:09:09;6.75;;;5.32;;
26375;SDS011;30544;42.196;24.336;2022-12-13T01:11:41;9.48;;;5.63;;
26375;SDS011;30544;42.196;24.336;2022-12-13T01:14:09;8.45;;;5.20;;
26375;SDS011;30544;42.196;24.336;2022-12-13T01:16:36;8.38;;;5.57;;
26375;SDS011;30544;42.196;24.336;2022-12-13T01:19:03;7.30;;;5.35;;
26375;SDS011;30544;42.196;24.336;2022-12-13T01:21:30;6.85;;;5.35;;
26375;SDS011;30544;42.196;24.336;2022-12-13T01:23:59;7.90;;;6.00;;
26375;SDS011;30544;42.196;24.336;2022-12-13T01:26:27;7.85;;;5.88;;
26375;SDS011;30544;42.196;24.336;2022-12-13T01:28:54;9.52;;;6.78;;
26375;SDS011;30544;42.196;24.336;2022-12-13T01:31:22;9.82;;;7.15;;
26375;SDS011;30544;42.196;24.336;2022-12-13T01:33:49;8.95;;;6.80;;
26375;SDS011;30544;42.196;24.336;2022-12-13T01:36:16;9.95;;;7.30;;
26375;SDS011;30544;42.196;24.336;2022-12-13T01:38:45;11.40;;;7.25;;
26375;SDS011;30544;42.196;24.336;2022-12-13T01:41:13;9.90;;;6.80;;
26375;SDS011;30544;42.196;24.336;2022-12-13T01:43:51;7.82;;;6.20;;
26375;SDS011;30544;42.196;24.336;2022-12-13T01:46:20;6.95;;;5.03;;
26375;SDS011;30544;42.196;24.336;2022-12-13T01:48:50;6.65;;;4.97;;
26375;SDS011;30544;42.196;24.336;2022-12-13T01:51:23;5.00;;;4.20;;
26375;SDS011;30544;42.196;24.336;2022-12-13T01:53:52;5.93;;;4.97;;
26375;SDS011;30544;42.196;24.336;2022-12-13T01:56:25;6.15;;;5.03;;
26375;SDS011;30544;42.196;24.336;2022-12-13T01:58:57;7.43;;;6.13;;
26375;SDS011;30544;42.196;24.336;2022-12-13T02:01:25;6.55;;;5.03;;
26375;SDS011;30544;42.196;24.336;2022-12-13T02:03:54;9.85;;;5.70;;
26375;SDS011;30544;42.196;24.336;2022-12-13T02:06:24;9.07;;;5.90;;
26375;SDS011;30544;42.196;24.336;2022-12-13T02:08:55;7.72;;;5.80;;
26375;SDS011;30544;42.196;24.336;2022-12-13T02:11:23;8.05;;;6.20;;
26375;SDS011;30544;42.196;24.336;2022-12-13T02:13:52;8.05;;;6.10;;
26375;SDS011;30544;42.196;24.336;2022-12-13T02:16:21;7.65;;;5.70;;
26375;SDS011;30544;42.196;24.336;2022-12-13T02:19:11;9.98;;;6.85;;
26375;SDS011;30544;42.196;24.336;2022-12-13T02:22:16;9.00;;;6.75;;
26375;SDS011;30544;42.196;24.336;2022-12-13T02:25:02;9.55;;;7.00;;
26375;SDS011;30544;42.196;24.336;2022-12-13T02:27:58;8.93;;;7.05;;
26375;SDS011;30544;42.196;24.336;2022-12-13T02:30:39;8.75;;;6.70;;
26375;SDS011;30544;42.196;24.336;2022-12-13T02:33:15;9.68;;;6.63;;
26375;SDS011;30544;42.196;24.336;2022-12-13T02:35:51;10.27;;;6.85;;
26375;SDS011;30544;42.196;24.336;2022-12-13T02:38:29;9.93;;;6.95;;
26375;SDS011;30544;42.196;24.336;2022-12-13T02:41:04;10.02;;;7.18;;
26375;SDS011;30544;42.196;24.336;2022-12-13T02:43:39;10.45;;;7.57;;
26375;SDS011;30544;42.196;24.336;2022-12-13T02:46:15;8.45;;;7.00;;
26375;SDS011;30544;42.196;24.336;2022-12-13T02:48:44;10.07;;;7.45;;
26375;SDS011;30544;42.196;24.336;2022-12-13T02:51:13;10.30;;;7.53;;
26375;SDS011;30544;42.196;24.336;2022-12-13T02:53:40;10.73;;;7.90;;
26375;SDS011;30544;42.196;24.336;2022-12-13T02:56:08;10.38;;;7.22;;
26375;SDS011;30544;42.196;24.336;2022-12-13T02:58:37;9.00;;;6.95;;
26375;SDS011;30544;42.196;24.336;2022-12-13T03:01:14;8.55;;;6.90;;
26375;SDS011;30544;42.196;24.336;2022-12-13T03:03:51;9.77;;;7.03;;
26375;SDS011;30544;42.196;24.336;2022-12-13T03:06:28;9.25;;;6.70;;
26375;SDS011;30544;42.196;24.336;2022-12-13T03:09:13;9.95;;;7.18;;
26375;SDS011;30544;42.196;24.336;2022-12-13T03:12:00;8.57;;;6.95;;
26375;SDS011;30544;42.196;24.336;2022-12-13T03:14:53;8.98;;;6.45;;
26375;SDS011;30544;42.196;24.336;2022-12-13T03:17:25;9.15;;;6.22;;
26375;SDS011;30544;42.196;24.336;2022-12-13T03:19:55;7.88;;;6.32;;
26375;SDS011;30544;42.196;24.336;2022-12-13T03:22:22;8.90;;;6.30;;
26375;SDS011;30544;42.196;24.336;2022-12-13T03:24:50;9.77;;;6.82;;
26375;SDS011;30544;42.196;24.336;2022-12-13T03:27:17;8.70;;;6.03;;
26375;SDS011;30544;42.196;24.336;2022-12-13T03:29:44;8.75;;;6.10;;
26375;SDS011;30544;42.196;24.336;2022-12-13T03:32:10;8.02;;;6.60;;
26375;SDS011;30544;42.196;24.336;2022-12-13T03:34:38;12.55;;;7.32;;
26375;SDS011;30544;42.196;24.336;2022-12-13T03:37:05;10.20;;;7.32;;
26375;SDS011;30544;42.196;24.336;2022-12-13T03:39:32;9.85;;;7.22;;
26375;SDS011;30544;42.196;24.336;2022-12-13T03:41:59;12.82;;;7.70;;
26375;SDS011;30544;42.196;24.336;2022-12-13T03:44:26;8.20;;;6.40;;
26375;SDS011;30544;42.196;24.336;2022-12-13T03:46:52;9.10;;;6.85;;
26375;SDS011;30544;42.196;24.336;2022-12-13T03:49:19;10.82;;;7.63;;
26375;SDS011;30544;42.196;24.336;2022-12-13T03:51:47;10.93;;;8.15;;
26375;SDS011;30544;42.196;24.336;2022-12-13T03:54:14;11.45;;;7.53;;
26375;SDS011;30544;42.196;24.336;2022-12-13T03:56:41;11.15;;;7.55;;
26375;SDS011;30544;42.196;24.336;2022-12-13T03:59:07;9.68;;;6.97;;
26375;SDS011;30544;42.196;24.336;2022-12-13T04:01:34;10.88;;;6.80;;
26375;SDS011;30544;42.196;24.336;2022-12-13T04:04:01;11.32;;;7.05;;
26375;SDS011;30544;42.196;24.336;2022-12-13T04:06:28;8.13;;;6.47;;
26375;SDS011;30544;42.196;24.336;2022-12-13T04:08:56;9.43;;;6.75;;
26375;SDS011;30544;42.196;24.336;2022-12-13T04:11:22;10.23;;;6.75;;
26375;SDS011;30544;42.196;24.336;2022-12-13T04:14:07;10.48;;;7.03;;
26375;SDS011;30544;42.196;24.336;2022-12-13T04:16:33;11.60;;;8.25;;
26375;SDS011;30544;42.196;24.336;2022-12-13T04:19:00;11.75;;;8.30;;
26375;SDS011;30544;42.196;24.336;2022-12-13T04:21:27;13.77;;;8.40;;
26375;SDS011;30544;42.196;24.336;2022-12-13T04:23:53;12.60;;;8.23;;
26375;SDS011;30544;42.196;24.336;2022-12-13T04:26:21;11.40;;;7.90;;
26375;SDS011;30544;42.196;24.336;2022-12-13T04:28:48;12.05;;;7.70;;
26375;SDS011;30544;42.196;24.336;2022-12-13T04:31:15;10.98;;;7.20;;
26375;SDS011;30544;42.196;24.336;2022-12-13T04:33:42;9.90;;;6.05;;
26375;SDS011;30544;42.196;24.336;2022-12-13T04:36:08;11.00;;;6.95;;
26375;SDS011;30544;42.196;24.336;2022-12-13T04:38:35;9.75;;;7.03;;
26375;SDS011;30544;42.196;24.336;2022-12-13T04:41:07;13.30;;;7.82;;
26375;SDS011;30544;42.196;24.336;2022-12-13T04:43:39;16.95;;;11.25;;
26375;SDS011;30544;42.196;24.336;2022-12-13T04:46:06;26.92;;;15.90;;
26375;SDS011;30544;42.196;24.336;2022-12-13T04:48:33;41.75;;;24.38;;
26375;SDS011;30544;42.196;24.336;2022-12-13T04:51:00;45.40;;;26.27;;
26375;SDS011;30544;42.196;24.336;2022-12-13T04:53:27;42.55;;;25.58;;
26375;SDS011;30544;42.196;24.336;2022-12-13T04:55:53;39.97;;;22.95;;
26375;SDS011;30544;42.196;24.336;2022-12-13T04:58:22;29.15;;;18.80;;
26375;SDS011;30544;42.196;24.336;2022-12-13T05:00:48;31.80;;;16.35;;
26375;SDS011;30544;42.196;24.336;2022-12-13T05:03:15;24.05;;;14.13;;
26375;SDS011;30544;42.196;24.336;2022-12-13T05:05:42;24.52;;;14.02;;
26375;SDS011;30544;42.196;24.336;2022-12-13T05:08:08;22.02;;;13.27;;
26375;SDS011;30544;42.196;24.336;2022-12-13T05:10:36;23.20;;;13.02;;
26375;SDS011;30544;42.196;24.336;2022-12-13T05:13:03;28.35;;;18.00;;
26375;SDS011;30544;42.196;24.336;2022-12-13T05:15:31;26.85;;;16.00;;
26375;SDS011;30544;42.196;24.336;2022-12-13T05:17:59;30.67;;;17.60;;
26375;SDS011;30544;42.196;24.336;2022-12-13T05:20:26;40.15;;;20.38;;
26375;SDS011;30544;42.196;24.336;2022-12-13T05:22:54;25.95;;;15.80;;
26375;SDS011;30544;42.196;24.336;2022-12-13T05:25:22;31.80;;;16.23;;
26375;SDS011;30544;42.196;24.336;2022-12-13T05:27:48;71.53;;;30.88;;
26375;SDS011;30544;42.196;24.336;2022-12-13T05:30:15;41.83;;;24.17;;
26375;SDS011;30544;42.196;24.336;2022-12-13T05:32:44;34.03;;;18.50;;
26375;SDS011;30544;42.196;24.336;2022-12-13T05:35:11;26.35;;;16.75;;
26375;SDS011;30544;42.196;24.336;2022-12-13T05:37:38;22.52;;;12.80;;
26375;SDS011;30544;42.196;24.336;2022-12-13T05:40:05;126.35;;;37.10;;
26375;SDS011;30544;42.196;24.336;2022-12-13T05:42:35;70.47;;;25.25;;
26375;SDS011;30544;42.196;24.336;2022-12-13T05:45:02;31.98;;;14.70;;
26375;SDS011;30544;42.196;24.336;2022-12-13T05:47:30;18.80;;;11.30;;
26375;SDS011;30544;42.196;24.336;2022-12-13T05:49:58;50.05;;;19.48;;
26375;SDS011;30544;42.196;24.336;2022-12-13T05:52:25;20.15;;;12.55;;
26375;SDS011;30544;42.196;24.336;2022-12-13T05:54:53;38.00;;;16.42;;
26375;SDS011;30544;42.196;24.336;2022-12-13T05:57:20;31.60;;;16.35;;
26375;SDS011;30544;42.196;24.336;2022-12-13T05:59:46;32.22;;;17.42;;
26375;SDS011;30544;42.196;24.336;2022-12-13T06:02:14;40.97;;;19.17;;
26375;SDS011;30544;42.196;24.336;2022-12-13T06:04:41;38.35;;;20.67;;
26375;SDS011;30544;42.196;24.336;2022-12-13T06:07:09;41.13;;;19.90;;
26375;SDS011;30544;42.196;24.336;2022-12-13T06:09:37;31.75;;;15.48;;
26375;SDS011;30544;42.196;24.336;2022-12-13T06:12:04;21.92;;;12.48;;
26375;SDS011;30544;42.196;24.336;2022-12-13T06:14:31;24.00;;;12.70;;
26375;SDS011;30544;42.196;24.336;2022-12-13T06:16:58;26.23;;;15.05;;
26375;SDS011;30544;42.196;24.336;2022-12-13T06:19:25;21.80;;;11.93;;
26375;SDS011;30544;42.196;24.336;2022-12-13T06:21:52;30.23;;;15.15;;
26375;SDS011;30544;42.196;24.336;2022-12-13T06:24:22;29.10;;;13.88;;
26375;SDS011;30544;42.196;24.336;2022-12-13T06:26:49;50.97;;;20.00;;
26375;SDS011;30544;42.196;24.336;2022-12-13T06:29:16;25.40;;;13.02;;
26375;SDS011;30544;42.196;24.336;2022-12-13T06:31:44;42.33;;;20.40;;
26375;SDS011;30544;42.196;24.336;2022-12-13T06:34:11;20.25;;;10.98;;
26375;SDS011;30544;42.196;24.336;2022-12-13T06:36:38;42.08;;;17.15;;
26375;SDS011;30544;42.196;24.336;2022-12-13T06:39:05;29.10;;;13.57;;
26375;SDS011;30544;42.196;24.336;2022-12-13T06:41:34;19.67;;;11.05;;
26375;SDS011;30544;42.196;24.336;2022-12-13T06:44:01;16.13;;;9.70;;
26375;SDS011;30544;42.196;24.336;2022-12-13T06:46:27;18.38;;;10.18;;
26375;SDS011;30544;42.196;24.336;2022-12-13T06:48:54;22.90;;;11.57;;
26375;SDS011;30544;42.196;24.336;2022-12-13T06:51:21;24.42;;;12.40;;
26375;SDS011;30544;42.196;24.336;2022-12-13T06:53:47;23.02;;;12.57;;
26375;SDS011;30544;42.196;24.336;2022-12-13T06:56:14;18.73;;;10.60;;
26375;SDS011;30544;42.196;24.336;2022-12-13T06:58:42;20.73;;;11.57;;
26375;SDS011;30544;42.196;24.336;2022-12-13T07:01:10;18.70;;;11.00;;
26375;SDS011;30544;42.196;24.336;2022-12-13T07:03:38;19.52;;;10.70;;
26375;SDS011;30544;42.196;24.336;2022-12-13T07:06:06;16.88;;;9.70;;
26375;SDS011;30544;42.196;24.336;2022-12-13T07:08:37;17.20;;;10.82;;
26375;SDS011;30544;42.196;24.336;2022-12-13T07:11:04;22.55;;;12.57;;
26375;SDS011;30544;42.196;24.336;2022-12-13T07:13:31;26.67;;;14.05;;
26375;SDS011;30544;42.196;24.336;2022-12-13T07:16:00;41.97;;;15.15;;
26375;SDS011;30544;42.196;24.336;2022-12-13T07:18:27;34.88;;;17.40;;
26375;SDS011;30544;42.196;24.336;2022-12-13T07:20:54;29.67;;;15.05;;
26375;SDS011;30544;42.196;24.336;2022-12-13T07:23:21;26.63;;;12.52;;
26375;SDS011;30544;42.196;24.336;2022-12-13T07:25:50;26.00;;;14.20;;
26375;SDS011;30544;42.196;24.336;2022-12-13T07:28:18;33.65;;;15.15;;
26375;SDS011;30544;42.196;24.336;2022-12-13T07:30:46;43.30;;;22.00;;
26375;SDS011;30544;42.196;24.336;2022-12-13T07:33:14;35.47;;;19.67;;
26375;SDS011;30544;42.196;24.336;2022-12-13T07:35:41;31.95;;;18.23;;
26375;SDS011;30544;42.196;24.336;2022-12-13T07:38:08;34.42;;;18.40;;
26375;SDS011;30544;42.196;24.336;2022-12-13T07:40:37;33.65;;;15.48;;
26375;SDS011;30544;42.196;24.336;2022-12-13T07:43:05;25.88;;;15.07;;
26375;SDS011;30544;42.196;24.336;2022-12-13T07:45:32;34.88;;;18.40;;
26375;SDS011;30544;42.196;24.336;2022-12-13T07:48:02;29.50;;;16.52;;
26375;SDS011;30544;42.196;24.336;2022-12-13T07:50:31;28.83;;;15.82;;
26375;SDS011;30544;42.196;24.336;2022-12-13T07:53:02;26.33;;;14.88;;
26375;SDS011;30544;42.196;24.336;2022-12-13T07:55:29;31.75;;;18.20;;
26375;SDS011;30544;42.196;24.336;2022-12-13T07:58:01;27.95;;;14.98;;
26375;SDS011;30544;42.196;24.336;2022-12-13T08:00:31;23.42;;;13.40;;
26375;SDS011;30544;42.196;24.336;2022-12-13T08:02:57;26.98;;;14.20;;
26375;SDS011;30544;42.196;24.336;2022-12-13T08:05:26;31.33;;;16.17;;
26375;SDS011;30544;42.196;24.336;2022-12-13T08:07:54;29.45;;;16.30;;
26375;SDS011;30544;42.196;24.336;2022-12-13T08:10:21;28.05;;;13.27;;
26375;SDS011;30544;42.196;24.336;2022-12-13T08:12:47;23.42;;;13.75;;
26375;SDS011;30544;42.196;24.336;2022-12-13T08:15:15;24.73;;;11.98;;
26375;SDS011;30544;42.196;24.336;2022-12-13T08:17:43;25.02;;;13.18;;
26375;SDS011;30544;42.196;24.336;2022-12-13T08:20:10;21.27;;;14.52;;
26375;SDS011;30544;42.196;24.336;2022-12-13T08:22:37;20.85;;;12.60;;
26375;SDS011;30544;42.196;24.336;2022-12-13T08:25:06;21.85;;;12.00;;
26375;SDS011;30544;42.196;24.336;2022-12-13T08:27:33;25.98;;;12.60;;
26375;SDS011;30544;42.196;24.336;2022-12-13T08:30:00;23.10;;;11.75;;
26375;SDS011;30544;42.196;24.336;2022-12-13T08:32:27;26.70;;;12.00;;
26375;SDS011;30544;42.196;24.336;2022-12-13T08:34:54;26.77;;;13.63;;
26375;SDS011;30544;42.196;24.336;2022-12-13T08:37:21;28.75;;;13.07;;
26375;SDS011;30544;42.196;24.336;2022-12-13T08:39:47;53.92;;;22.60;;
26375;SDS011;30544;42.196;24.336;2022-12-13T08:42:16;21.48;;;11.85;;
26375;SDS011;30544;42.196;24.336;2022-12-13T08:44:44;22.98;;;13.25;;
26375;SDS011;30544;42.196;24.336;2022-12-13T08:47:12;17.65;;;11.25;;
26375;SDS011;30544;42.196;24.336;2022-12-13T08:49:38;25.77;;;11.40;;
26375;SDS011;30544;42.196;24.336;2022-12-13T08:52:05;28.70;;;14.32;;
26375;SDS011;30544;42.196;24.336;2022-12-13T08:54:32;21.42;;;10.27;;
26375;SDS011;30544;42.196;24.336;2022-12-13T08:56:59;25.52;;;12.48;;
26375;SDS011;30544;42.196;24.336;2022-12-13T08:59:27;27.55;;;14.10;;
26375;SDS011;30544;42.196;24.336;2022-12-13T09:01:54;19.20;;;9.63;;
26375;SDS011;30544;42.196;24.336;2022-12-13T09:04:20;14.23;;;9.43;;
26375;SDS011;30544;42.196;24.336;2022-12-13T09:06:47;18.08;;;10.73;;
26375;SDS011;30544;42.196;24.336;2022-12-13T09:09:14;19.63;;;11.23;;
26375;SDS011;30544;42.196;24.336;2022-12-13T09:11:41;17.77;;;11.02;;
26375;SDS011;30544;42.196;24.336;2022-12-13T09:14:08;22.13;;;11.00;;
26375;SDS011;30544;42.196;24.336;2022-12-13T09:16:36;16.45;;;10.20;;
26375;SDS011;30544;42.196;24.336;2022-12-13T09:19:03;20.58;;;10.43;;
26375;SDS011;30544;42.196;24.336;2022-12-13T09:21:30;17.60;;;8.32;;
26375;SDS011;30544;42.196;24.336;2022-12-13T09:23:58;17.15;;;9.00;;
26375;SDS011;30544;42.196;24.336;2022-12-13T09:26:25;13.75;;;7.97;;
26375;SDS011;30544;42.196;24.336;2022-12-13T09:28:51;14.50;;;7.85;;
26375;SDS011;30544;42.196;24.336;2022-12-13T09:31:18;11.75;;;7.70;;
26375;SDS011;30544;42.196;24.336;2022-12-13T09:33:47;17.90;;;8.05;;
26375;SDS011;30544;42.196;24.336;2022-12-13T09:36:15;16.50;;;9.95;;
26375;SDS011;30544;42.196;24.336;2022-12-13T09:38:43;17.08;;;9.93;;
26375;SDS011;30544;42.196;24.336;2022-12-13T09:41:15;17.88;;;10.65;;
26375;SDS011;30544;42.196;24.336;2022-12-13T09:43:46;16.52;;;9.70;;
26375;SDS011;30544;42.196;24.336;2022-12-13T09:46:18;16.30;;;9.48;;
26375;SDS011;30544;42.196;24.336;2022-12-13T09:48:53;14.77;;;8.68;;
26375;SDS011;30544;42.196;24.336;2022-12-13T09:51:21;15.20;;;8.43;;
26375;SDS011;30544;42.196;24.336;2022-12-13T09:53:50;18.15;;;9.40;;
26375;SDS011;30544;42.196;24.336;2022-12-13T09:56:19;19.45;;;10.23;;
26375;SDS011;30544;42.196;24.336;2022-12-13T09:58:48;14.60;;;9.35;;
26375;SDS011;30544;42.196;24.336;2022-12-13T10:01:16;11.75;;;7.53;;
26375;SDS011;30544;42.196;24.336;2022-12-13T10:03:45;20.35;;;8.93;;
26375;SDS011;30544;42.196;24.336;2022-12-13T10:06:17;13.90;;;8.85;;
26375;SDS011;30544;42.196;24.336;2022-12-13T10:08:46;14.18;;;8.10;;
26375;SDS011;30544;42.196;24.336;2022-12-13T10:11:15;12.57;;;8.50;;
26375;SDS011;30544;42.196;24.336;2022-12-13T10:13:43;16.02;;;8.95;;
26375;SDS011;30544;42.196;24.336;2022-12-13T10:16:15;15.85;;;8.60;;
26375;SDS011;30544;42.196;24.336;2022-12-13T10:18:48;13.93;;;8.68;;
26375;SDS011;30544;42.196;24.336;2022-12-13T10:21:17;17.08;;;9.90;;
26375;SDS011;30544;42.196;24.336;2022-12-13T10:23:49;17.23;;;9.27;;
26375;SDS011;30544;42.196;24.336;2022-12-13T10:26:16;14.65;;;9.57;;
26375;SDS011;30544;42.196;24.336;2022-12-13T10:28:43;20.95;;;10.57;;
26375;SDS011;30544;42.196;24.336;2022-12-13T10:31:14;25.98;;;13.60;;
26375;SDS011;30544;42.196;24.336;2022-12-13T10:33:48;24.77;;;13.15;;
26375;SDS011;30544;42.196;24.336;2022-12-13T10:36:31;21.40;;;11.60;;
26375;SDS011;30544;42.196;24.336;2022-12-13T10:38:59;20.83;;;10.68;;
26375;SDS011;30544;42.196;24.336;2022-12-13T10:41:34;15.88;;;9.82;;
26375;SDS011;30544;42.196;24.336;2022-12-13T10:44:08;16.08;;;9.52;;
26375;SDS011;30544;42.196;24.336;2022-12-13T10:46:46;15.15;;;9.55;;
26375;SDS011;30544;42.196;24.336;2022-12-13T10:49:15;16.80;;;9.32;;
26375;SDS011;30544;42.196;24.336;2022-12-13T10:51:45;20.15;;;11.05;;
26375;SDS011;30544;42.196;24.336;2022-12-13T10:54:14;45.63;;;17.88;;
26375;SDS011;30544;42.196;24.336;2022-12-13T10:56:45;24.73;;;11.25;;
26375;SDS011;30544;42.196;24.336;2022-12-13T10:59:24;32.63;;;14.60;;
26375;SDS011;30544;42.196;24.336;2022-12-13T11:01:53;33.42;;;16.25;;
26375;SDS011;30544;42.196;24.336;2022-12-13T11:04:21;14.80;;;9.00;;
26375;SDS011;30544;42.196;24.336;2022-12-13T11:06:53;31.02;;;15.18;;
26375;SDS011;30544;42.196;24.336;2022-12-13T11:09:24;15.52;;;9.43;;
26375;SDS011;30544;42.196;24.336;2022-12-13T11:11:53;32.10;;;11.63;;
26375;SDS011;30544;42.196;24.336;2022-12-13T11:14:23;19.35;;;10.50;;
26375;SDS011;30544;42.196;24.336;2022-12-13T11:16:52;25.02;;;10.57;;
26375;SDS011;30544;42.196;24.336;2022-12-13T11:19:23;26.13;;;14.18;;
26375;SDS011;30544;42.196;24.336;2022-12-13T11:21:54;17.70;;;11.52;;
26375;SDS011;30544;42.196;24.336;2022-12-13T11:24:22;29.10;;;13.90;;
26375;SDS011;30544;42.196;24.336;2022-12-13T11:26:52;20.90;;;12.23;;
26375;SDS011;30544;42.196;24.336;2022-12-13T11:29:35;22.92;;;13.18;;
26375;SDS011;30544;42.196;24.336;2022-12-13T11:32:15;22.05;;;13.38;;
26375;SDS011;30544;42.196;24.336;2022-12-13T11:34:54;23.45;;;12.00;;
26375;SDS011;30544;42.196;24.336;2022-12-13T11:37:32;13.68;;;9.02;;
26375;SDS011;30544;42.196;24.336;2022-12-13T11:40:10;20.20;;;10.68;;
26375;SDS011;30544;42.196;24.336;2022-12-13T11:42:42;18.73;;;10.73;;
26375;SDS011;30544;42.196;24.336;2022-12-13T11:45:14;20.20;;;10.48;;
26375;SDS011;30544;42.196;24.336;2022-12-13T11:47:46;24.90;;;12.90;;
26375;SDS011;30544;42.196;24.336;2022-12-13T11:50:16;18.05;;;8.73;;
26375;SDS011;30544;42.196;24.336;2022-12-13T11:52:49;19.20;;;11.00;;
26375;SDS011;30544;42.196;24.336;2022-12-13T11:55:18;23.98;;;12.18;;
26375;SDS011;30544;42.196;24.336;2022-12-13T11:57:51;14.60;;;8.43;;
26375;SDS011;30544;42.196;24.336;2022-12-13T12:00:29;11.93;;;7.45;;
26375;SDS011;30544;42.196;24.336;2022-12-13T12:03:00;14.05;;;8.82;;
26375;SDS011;30544;42.196;24.336;2022-12-13T12:05:36;64.15;;;22.92;;
26375;SDS011;30544;42.196;24.336;2022-12-13T12:08:11;19.52;;;10.77;;
26375;SDS011;30544;42.196;24.336;2022-12-13T12:10:44;19.23;;;10.35;;
26375;SDS011;30544;42.196;24.336;2022-12-13T12:13:13;27.45;;;13.05;;
26375;SDS011;30544;42.196;24.336;2022-12-13T12:15:45;15.15;;;9.18;;
26375;SDS011;30544;42.196;24.336;2022-12-13T12:18:18;18.23;;;10.10;;
26375;SDS011;30544;42.196;24.336;2022-12-13T12:20:49;17.90;;;10.35;;
26375;SDS011;30544;42.196;24.336;2022-12-13T12:23:30;15.65;;;8.13;;
26375;SDS011;30544;42.196;24.336;2022-12-13T12:26:09;12.75;;;7.93;;
26375;SDS011;30544;42.196;24.336;2022-12-13T12:28:45;11.90;;;6.75;;
26375;SDS011;30544;42.196;24.336;2022-12-13T12:33:58;16.38;;;10.07;;
26375;SDS011;30544;42.196;24.336;2022-12-13T12:36:37;15.23;;;9.25;;
26375;SDS011;30544;42.196;24.336;2022-12-13T12:39:20;17.45;;;10.25;;
26375;SDS011;30544;42.196;24.336;2022-12-13T12:42:04;20.83;;;11.52;;
26375;SDS011;30544;42.196;24.336;2022-12-13T12:44:56;19.42;;;9.85;;
26375;SDS011;30544;42.196;24.336;2022-12-13T12:47:33;15.40;;;8.88;;
26375;SDS011;30544;42.196;24.336;2022-12-13T12:50:21;18.38;;;10.00;;
26375;SDS011;30544;42.196;24.336;2022-12-13T12:52:57;16.95;;;10.25;;
26375;SDS011;30544;42.196;24.336;2022-12-13T12:55:37;22.67;;;13.35;;
26375;SDS011;30544;42.196;24.336;2022-12-13T12:58:18;16.73;;;9.93;;
26375;SDS011;30544;42.196;24.336;2022-12-13T13:00:55;15.98;;;10.25;;
26375;SDS011;30544;42.196;24.336;2022-12-13T13:03:39;16.20;;;9.82;;
26375;SDS011;30544;42.196;24.336;2022-12-13T13:06:09;14.85;;;8.98;;
26375;SDS011;30544;42.196;24.336;2022-12-13T13:08:40;16.00;;;9.77;;
26375;SDS011;30544;42.196;24.336;2022-12-13T13:11:14;17.67;;;10.55;;
26375;SDS011;30544;42.196;24.336;2022-12-13T13:13:45;16.67;;;10.40;;
26375;SDS011;30544;42.196;24.336;2022-12-13T13:16:27;21.20;;;11.18;;
26375;SDS011;30544;42.196;24.336;2022-12-13T13:18:56;19.48;;;10.90;;
26375;SDS011;30544;42.196;24.336;2022-12-13T13:21:24;19.88;;;11.45;;
26375;SDS011;30544;42.196;24.336;2022-12-13T13:24:14;20.77;;;12.15;;
26375;SDS011;30544;42.196;24.336;2022-12-13T13:26:47;17.55;;;11.15;;
26375;SDS011;30544;42.196;24.336;2022-12-13T13:34:52;19.92;;;11.02;;
26375;SDS011;30544;42.196;24.336;2022-12-13T13:40:25;22.27;;;12.43;;
26375;SDS011;30544;42.196;24.336;2022-12-13T13:43:02;16.38;;;10.63;;
26375;SDS011;30544;42.196;24.336;2022-12-13T13:48:23;16.92;;;10.23;;
26375;SDS011;30544;42.196;24.336;2022-12-13T14:00:17;44.40;;;19.67;;
26375;SDS011;30544;42.196;24.336;2022-12-13T14:15:27;51.40;;;24.15;;
26375;SDS011;30544;42.196;24.336;2022-12-13T14:21:21;65.53;;;28.35;;
26375;SDS011;30544;42.196;24.336;2022-12-13T14:23:58;54.05;;;25.75;;
26375;SDS011;30544;42.196;24.336;2022-12-13T14:26:41;47.53;;;23.75;;
26375;SDS011;30544;42.196;24.336;2022-12-13T14:29:17;50.80;;;23.55;;
26375;SDS011;30544;42.196;24.336;2022-12-13T14:31:49;52.88;;;28.63;;
26375;SDS011;30544;42.196;24.336;2022-12-13T14:34:18;58.17;;;29.02;;
26375;SDS011;30544;42.196;24.336;2022-12-13T14:36:54;61.55;;;26.85;;
26375;SDS011;30544;42.196;24.336;2022-12-13T14:39:23;55.33;;;26.92;;
26375;SDS011;30544;42.196;24.336;2022-12-13T14:41:53;60.85;;;29.52;;
26375;SDS011;30544;42.196;24.336;2022-12-13T14:44:22;57.10;;;30.15;;
26375;SDS011;30544;42.196;24.336;2022-12-13T14:46:54;60.45;;;30.70;;
26375;SDS011;30544;42.196;24.336;2022-12-13T14:49:22;49.85;;;26.17;;
26375;SDS011;30544;42.196;24.336;2022-12-13T14:51:52;51.72;;;27.98;;
26375;SDS011;30544;42.196;24.336;2022-12-13T14:54:25;58.55;;;31.45;;
26375;SDS011;30544;42.196;24.336;2022-12-13T14:56:55;58.33;;;26.27;;
26375;SDS011;30544;42.196;24.336;2022-12-13T14:59:24;50.90;;;24.67;;
26375;SDS011;30544;42.196;24.336;2022-12-13T15:01:54;54.97;;;28.77;;
26375;SDS011;30544;42.196;24.336;2022-12-13T15:04:27;50.28;;;25.88;;
26375;SDS011;30544;42.196;24.336;2022-12-13T15:06:56;58.97;;;30.10;;
26375;SDS011;30544;42.196;24.336;2022-12-13T15:09:28;48.33;;;23.48;;
26375;SDS011;30544;42.196;24.336;2022-12-13T15:11:56;50.22;;;25.60;;
26375;SDS011;30544;42.196;24.336;2022-12-13T15:14:23;47.90;;;23.85;;